sensor_id;sensor_type;location;lat;lon;timestamp;pressure;altitude;pressure_sealevel;temperature;humidity
23321;BME280;33376;51.306;4.752;2023-11-21T00:01:05;102503.81;;;7.13;nan
23321;BME280;33376;51.306;4.752;2023-11-21T00:03:30;102504.56;;;7.21;nan
23321;BME280;33376;51.306;4.752;2023-11-21T00:05:56;102503.91;;;7.06;nan
23321;BME280;33376;51.306;4.752;2023-11-21T00:08:21;102504.56;;;7.21;nan
23321;BME280;33376;51.306;4.752;2023-11-21T00:10:46;102504.59;;;7.20;nan
23321;BME280;33376;51.306;4.752;2023-11-21T00:13:13;102511.44;;;7.33;nan
23321;BME280;33376;51.306;4.752;2023-11-21T00:15:38;102510.69;;;7.23;nan
23321;BME280;33376;51.306;4.752;2023-11-21T00:18:03;102513.97;;;7.40;nan
23321;BME280;33376;51.306;4.752;2023-11-21T00:20:29;102513.69;;;7.59;nan
23321;BME280;33376;51.306;4.752;2023-11-21T00:22:54;102518.72;;;7.74;nan
23321;BME280;33376;51.306;4.752;2023-11-21T00:25:19;102523.28;;;7.64;nan
23321;BME280;33376;51.306;4.752;2023-11-21T00:27:45;102539.16;;;7.61;nan
23321;BME280;33376;51.306;4.752;2023-11-21T00:30:10;102546.06;;;7.70;nan
23321;BME280;33376;51.306;4.752;2023-11-21T00:32:36;102554.16;;;7.59;nan
23321;BME280;33376;51.306;4.752;2023-11-21T00:35:02;102559.63;;;7.45;nan
23321;BME280;33376;51.306;4.752;2023-11-21T00:37:27;102559.63;;;7.45;nan
23321;BME280;33376;51.306;4.752;2023-11-21T00:39:52;102567.47;;;7.50;nan
23321;BME280;33376;51.306;4.752;2023-11-21T00:42:17;102570.25;;;7.41;nan
23321;BME280;33376;51.306;4.752;2023-11-21T00:44:43;102565.00;;;7.39;nan
23321;BME280;33376;51.306;4.752;2023-11-21T00:47:08;102563.38;;;7.29;nan
23321;BME280;33376;51.306;4.752;2023-11-21T00:49:33;102557.28;;;7.27;nan
23321;BME280;33376;51.306;4.752;2023-11-21T00:51:58;102562.53;;;7.29;nan
23321;BME280;33376;51.306;4.752;2023-11-21T00:54:24;102569.44;;;7.36;nan
23321;BME280;33376;51.306;4.752;2023-11-21T00:56:49;102561.72;;;7.24;nan
23321;BME280;33376;51.306;4.752;2023-11-21T00:59:14;102564.81;;;7.52;nan
23321;BME280;33376;51.306;4.752;2023-11-21T01:01:40;102565.91;;;7.38;nan
23321;BME280;33376;51.306;4.752;2023-11-21T01:04:05;102568.22;;;7.60;nan
23321;BME280;33376;51.306;4.752;2023-11-21T01:06:31;102572.00;;;7.40;nan
23321;BME280;33376;51.306;4.752;2023-11-21T01:08:57;102565.03;;;7.36;nan
23321;BME280;33376;51.306;4.752;2023-11-21T01:11:22;102560.91;;;7.19;nan
23321;BME280;33376;51.306;4.752;2023-11-21T01:13:47;102570.44;;;7.29;nan
23321;BME280;33376;51.306;4.752;2023-11-21T01:16:12;102567.88;;;7.21;nan
23321;BME280;33376;51.306;4.752;2023-11-21T01:18:38;102565.13;;;7.32;nan
23321;BME280;33376;51.306;4.752;2023-11-21T01:21:03;102568.34;;;7.51;nan
23321;BME280;33376;51.306;4.752;2023-11-21T01:23:28;102574.72;;;7.36;nan
23321;BME280;33376;51.306;4.752;2023-11-21T01:25:55;102581.88;;;7.26;nan
23321;BME280;33376;51.306;4.752;2023-11-21T01:28:20;102582.53;;;7.45;nan
23321;BME280;33376;51.306;4.752;2023-11-21T01:30:46;102588.06;;;7.27;nan
23321;BME280;33376;51.306;4.752;2023-11-21T01:33:11;102571.16;;;7.40;nan
23321;BME280;33376;51.306;4.752;2023-11-21T01:35:36;102582.66;;;7.34;nan
23321;BME280;33376;51.306;4.752;2023-11-21T01:38:02;102577.66;;;7.13;nan
23321;BME280;33376;51.306;4.752;2023-11-21T01:40:27;102582.91;;;7.16;nan
23321;BME280;33376;51.306;4.752;2023-11-21T01:42:53;102577.63;;;7.18;nan
23321;BME280;33376;51.306;4.752;2023-11-21T01:45:19;102582.03;;;7.16;nan
23321;BME280;33376;51.306;4.752;2023-11-21T01:47:44;102582.91;;;7.16;nan
23321;BME280;33376;51.306;4.752;2023-11-21T01:50:12;102582.00;;;7.19;nan
23321;BME280;33376;51.306;4.752;2023-11-21T01:52:38;102591.56;;;7.26;nan
23321;BME280;33376;51.306;4.752;2023-11-21T01:55:04;102591.19;;;7.52;nan
23321;BME280;33376;51.306;4.752;2023-11-21T01:57:31;102593.97;;;7.42;nan
23321;BME280;33376;51.306;4.752;2023-11-21T01:59:56;102596.50;;;7.53;nan
23321;BME280;33376;51.306;4.752;2023-11-21T02:02:23;102589.53;;;7.46;nan
23321;BME280;33376;51.306;4.752;2023-11-21T02:04:49;102592.81;;;7.63;nan
23321;BME280;33376;51.306;4.752;2023-11-21T02:07:14;102589.47;;;7.51;nan
23321;BME280;33376;51.306;4.752;2023-11-21T02:09:39;102589.25;;;7.66;nan
23321;BME280;33376;51.306;4.752;2023-11-21T02:12:07;102591.81;;;7.70;nan
23321;BME280;33376;51.306;4.752;2023-11-21T02:14:34;102595.31;;;7.74;nan
23321;BME280;33376;51.306;4.752;2023-11-21T02:16:59;102593.56;;;7.71;nan
23321;BME280;33376;51.306;4.752;2023-11-21T02:19:26;102595.22;;;7.78;nan
23321;BME280;33376;51.306;4.752;2023-11-21T02:21:51;102586.75;;;7.55;nan
23321;BME280;33376;51.306;4.752;2023-11-21T02:24:20;102588.13;;;7.22;nan
23321;BME280;33376;51.306;4.752;2023-11-21T02:26:45;102587.19;;;7.25;nan
23321;BME280;33376;51.306;4.752;2023-11-21T02:29:11;102589.81;;;7.26;nan
23321;BME280;33376;51.306;4.752;2023-11-21T02:31:37;102588.94;;;7.24;nan
23321;BME280;33376;51.306;4.752;2023-11-21T02:34:10;102591.88;;;7.03;nan
23321;BME280;33376;51.306;4.752;2023-11-21T02:36:38;102584.41;;;7.34;nan
23321;BME280;33376;51.306;4.752;2023-11-21T02:39:03;102588.88;;;7.30;nan
23321;BME280;33376;51.306;4.752;2023-11-21T02:41:28;102584.50;;;7.28;nan
23321;BME280;33376;51.306;4.752;2023-11-21T02:43:54;102581.75;;;7.37;nan
23321;BME280;33376;51.306;4.752;2023-11-21T02:46:19;102585.28;;;7.34;nan
23321;BME280;33376;51.306;4.752;2023-11-21T02:48:44;102574.78;;;7.31;nan
23321;BME280;33376;51.306;4.752;2023-11-21T02:51:09;102577.34;;;7.37;nan
23321;BME280;33376;51.306;4.752;2023-11-21T02:53:35;102578.47;;;7.20;nan
23321;BME280;33376;51.306;4.752;2023-11-21T02:56:00;102573.00;;;7.35;nan
23321;BME280;33376;51.306;4.752;2023-11-21T02:58:25;102573.78;;;7.41;nan
23321;BME280;33376;51.306;4.752;2023-11-21T03:00:50;102572.19;;;7.28;nan
23321;BME280;33376;51.306;4.752;2023-11-21T03:03:16;102569.59;;;7.27;nan
23321;BME280;33376;51.306;4.752;2023-11-21T03:05:42;102575.69;;;7.32;nan
23321;BME280;33376;51.306;4.752;2023-11-21T03:08:07;102573.84;;;7.34;nan
23321;BME280;33376;51.306;4.752;2023-11-21T03:10:33;102574.63;;;7.42;nan
23321;BME280;33376;51.306;4.752;2023-11-21T03:12:58;102562.25;;;7.47;nan
23321;BME280;33376;51.306;4.752;2023-11-21T03:15:23;102576.91;;;7.66;nan
23321;BME280;33376;51.306;4.752;2023-11-21T03:17:48;102578.81;;;7.57;nan
23321;BME280;33376;51.306;4.752;2023-11-21T03:20:14;102585.94;;;7.52;nan
23321;BME280;33376;51.306;4.752;2023-11-21T03:22:41;102582.88;;;7.79;nan
23321;BME280;33376;51.306;4.752;2023-11-21T03:25:07;102596.31;;;7.64;nan
23321;BME280;33376;51.306;4.752;2023-11-21T03:27:35;102603.50;;;7.54;nan
23321;BME280;33376;51.306;4.752;2023-11-21T03:30:00;102601.88;;;7.44;nan
23321;BME280;33376;51.306;4.752;2023-11-21T03:32:26;102601.00;;;7.42;nan
23321;BME280;33376;51.306;4.752;2023-11-21T03:34:54;102609.75;;;7.47;nan
23321;BME280;33376;51.306;4.752;2023-11-21T03:37:21;102609.34;;;7.74;nan
23321;BME280;33376;51.306;4.752;2023-11-21T03:39:46;102622.38;;;7.86;nan
23321;BME280;33376;51.306;4.752;2023-11-21T03:42:12;102630.75;;;8.15;nan
23321;BME280;33376;51.306;4.752;2023-11-21T03:44:37;102641.16;;;8.26;nan
23321;BME280;33376;51.306;4.752;2023-11-21T03:47:02;102648.59;;;7.98;nan
23321;BME280;33376;51.306;4.752;2023-11-21T03:49:28;102648.91;;;7.80;nan
23321;BME280;33376;51.306;4.752;2023-11-21T03:51:54;102645.47;;;7.74;nan
23321;BME280;33376;51.306;4.752;2023-11-21T03:54:19;102651.53;;;7.80;nan
23321;BME280;33376;51.306;4.752;2023-11-21T03:56:44;102648.66;;;7.95;nan
23321;BME280;33376;51.306;4.752;2023-11-21T03:59:10;102649.84;;;8.34;nan
23321;BME280;33376;51.306;4.752;2023-11-21T04:01:35;102651.59;;;8.33;nan
23321;BME280;33376;51.306;4.752;2023-11-21T04:04:00;102651.53;;;8.36;nan
23321;BME280;33376;51.306;4.752;2023-11-21T04:06:25;102660.13;;;8.49;nan
23321;BME280;33376;51.306;4.752;2023-11-21T04:08:50;102665.59;;;8.38;nan
23321;BME280;33376;51.306;4.752;2023-11-21T04:11:16;102677.66;;;9.02;nan
23321;BME280;33376;51.306;4.752;2023-11-21T04:13:41;102692.78;;;8.97;nan
23321;BME280;33376;51.306;4.752;2023-11-21T04:16:07;102700.84;;;8.89;nan
23321;BME280;33376;51.306;4.752;2023-11-21T04:18:33;102708.72;;;8.92;nan
23321;BME280;33376;51.306;4.752;2023-11-21T04:20:58;102719.13;;;9.03;nan
23321;BME280;33376;51.306;4.752;2023-11-21T04:23:24;102734.19;;;8.99;nan
23321;BME280;33376;51.306;4.752;2023-11-21T04:25:49;102721.66;;;9.09;nan
23321;BME280;33376;51.306;4.752;2023-11-21T04:28:14;102725.16;;;9.11;nan
23321;BME280;33376;51.306;4.752;2023-11-21T04:30:39;102730.44;;;9.11;nan
23321;BME280;33376;51.306;4.752;2023-11-21T04:33:05;102735.88;;;9.02;nan
23321;BME280;33376;51.306;4.752;2023-11-21T04:35:35;102734.78;;;9.13;nan
23321;BME280;33376;51.306;4.752;2023-11-21T04:38:00;102729.44;;;9.16;nan
23321;BME280;33376;51.306;4.752;2023-11-21T04:40:28;102730.06;;;9.30;nan
23321;BME280;33376;51.306;4.752;2023-11-21T04:42:54;102726.34;;;9.39;nan
23321;BME280;33376;51.306;4.752;2023-11-21T04:45:27;102721.31;;;9.27;nan
23321;BME280;33376;51.306;4.752;2023-11-21T04:47:53;102715.25;;;9.20;nan
23321;BME280;33376;51.306;4.752;2023-11-21T04:50:20;102710.38;;;9.43;nan
23321;BME280;33376;51.306;4.752;2023-11-21T04:52:47;102708.06;;;9.27;nan
23321;BME280;33376;51.306;4.752;2023-11-21T04:55:12;102713.31;;;8.81;nan
23321;BME280;33376;51.306;4.752;2023-11-21T04:57:37;102707.75;;;8.98;nan
23321;BME280;33376;51.306;4.752;2023-11-21T05:00:03;102706.28;;;9.27;nan
23321;BME280;33376;51.306;4.752;2023-11-21T05:02:31;102698.44;;;9.23;nan
23321;BME280;33376;51.306;4.752;2023-11-21T05:04:56;102705.13;;;8.96;nan
23321;BME280;33376;51.306;4.752;2023-11-21T05:07:21;102706.41;;;8.75;nan
23321;BME280;33376;51.306;4.752;2023-11-21T05:09:47;102697.09;;;9.01;nan
23321;BME280;33376;51.306;4.752;2023-11-21T05:12:12;102704.50;;;8.83;nan
23321;BME280;33376;51.306;4.752;2023-11-21T05:14:39;102704.88;;;9.08;nan
23321;BME280;33376;51.306;4.752;2023-11-21T05:17:04;102708.28;;;9.15;nan
23321;BME280;33376;51.306;4.752;2023-11-21T05:19:29;102716.16;;;8.72;nan
23321;BME280;33376;51.306;4.752;2023-11-21T05:21:55;102717.91;;;8.71;nan
23321;BME280;33376;51.306;4.752;2023-11-21T05:24:22;102718.78;;;8.72;nan
23321;BME280;33376;51.306;4.752;2023-11-21T05:26:47;102716.28;;;8.64;nan
23321;BME280;33376;51.306;4.752;2023-11-21T05:29:12;102727.31;;;8.87;nan
23321;BME280;33376;51.306;4.752;2023-11-21T05:31:38;102719.59;;;9.23;nan
23321;BME280;33376;51.306;4.752;2023-11-21T05:34:03;102725.78;;;9.23;nan
23321;BME280;33376;51.306;4.752;2023-11-21T05:36:30;102722.91;;;9.34;nan
23321;BME280;33376;51.306;4.752;2023-11-21T05:38:55;102733.47;;;9.35;nan
23321;BME280;33376;51.306;4.752;2023-11-21T05:41:20;102742.47;;;9.28;nan
23321;BME280;33376;51.306;4.752;2023-11-21T05:43:46;102740.91;;;9.61;nan
23321;BME280;33376;51.306;4.752;2023-11-21T05:46:11;102734.81;;;9.56;nan
23321;BME280;33376;51.306;4.752;2023-11-21T05:48:38;102742.75;;;9.57;nan
23321;BME280;33376;51.306;4.752;2023-11-21T05:51:06;102741.13;;;9.50;nan
23321;BME280;33376;51.306;4.752;2023-11-21T05:53:32;102737.09;;;9.31;nan
23321;BME280;33376;51.306;4.752;2023-11-21T05:55:57;102738.00;;;9.29;nan
23321;BME280;33376;51.306;4.752;2023-11-21T05:58:22;102741.25;;;9.44;nan
23321;BME280;33376;51.306;4.752;2023-11-21T06:00:48;102741.13;;;9.50;nan
23321;BME280;33376;51.306;4.752;2023-11-21T06:03:13;102743.94;;;9.43;nan
23321;BME280;33376;51.306;4.752;2023-11-21T06:05:38;102739.28;;;9.54;nan
23321;BME280;33376;51.306;4.752;2023-11-21T06:08:03;102672.53;;;9.40;nan
23321;BME280;33376;51.306;4.752;2023-11-21T06:10:29;102666.25;;;9.44;nan
23321;BME280;33376;51.306;4.752;2023-11-21T06:12:54;102671.50;;;9.45;nan
23321;BME280;33376;51.306;4.752;2023-11-21T06:15:19;102673.47;;;9.36;nan
23321;BME280;33376;51.306;4.752;2023-11-21T06:17:47;102669.97;;;9.34;nan
23321;BME280;33376;51.306;4.752;2023-11-21T06:20:16;102672.97;;;9.60;nan
23321;BME280;33376;51.306;4.752;2023-11-21T06:22:43;102670.00;;;9.32;nan
23321;BME280;33376;51.306;4.752;2023-11-21T06:25:10;102675.25;;;9.34;nan
23321;BME280;33376;51.306;4.752;2023-11-21T06:27:39;102674.25;;;9.41;nan
23321;BME280;33376;51.306;4.752;2023-11-21T06:30:05;102665.09;;;9.57;nan
23321;BME280;33376;51.306;4.752;2023-11-21T06:32:31;102664.88;;;9.66;nan
23321;BME280;33376;51.306;4.752;2023-11-21T06:34:56;102671.97;;;9.64;nan
23321;BME280;33376;51.306;4.752;2023-11-21T06:37:25;102679.88;;;9.67;nan
23321;BME280;33376;51.306;4.752;2023-11-21T06:39:50;102677.66;;;9.47;nan
23321;BME280;33376;51.306;4.752;2023-11-21T06:42:17;102691.25;;;9.29;nan
23321;BME280;33376;51.306;4.752;2023-11-21T06:44:42;102674.13;;;9.47;nan
23321;BME280;33376;51.306;4.752;2023-11-21T06:47:08;102680.06;;;9.58;nan
23321;BME280;33376;51.306;4.752;2023-11-21T06:49:33;102683.47;;;9.63;nan
23321;BME280;33376;51.306;4.752;2023-11-21T06:51:58;102670.88;;;9.33;nan
23321;BME280;33376;51.306;4.752;2023-11-21T06:54:24;102687.66;;;9.33;nan
23321;BME280;33376;51.306;4.752;2023-11-21T06:56:49;102688.56;;;9.31;nan
23321;BME280;33376;51.306;4.752;2023-11-21T06:59:15;102686.56;;;9.42;nan
23321;BME280;33376;51.306;4.752;2023-11-21T07:01:40;102693.81;;;9.75;nan
23321;BME280;33376;51.306;4.752;2023-11-21T07:04:06;102701.78;;;9.75;nan
23321;BME280;33376;51.306;4.752;2023-11-21T07:06:32;102698.84;;;9.87;nan
23321;BME280;33376;51.306;4.752;2023-11-21T07:08:57;102702.88;;;9.65;nan
23321;BME280;33376;51.306;4.752;2023-11-21T07:11:23;102712.31;;;9.78;nan
23321;BME280;33376;51.306;4.752;2023-11-21T07:13:48;102717.28;;;9.91;nan
23321;BME280;33376;51.306;4.752;2023-11-21T07:16:14;102718.56;;;10.13;nan
23321;BME280;33376;51.306;4.752;2023-11-21T07:18:40;102734.16;;;9.87;nan
23321;BME280;33376;51.306;4.752;2023-11-21T07:21:06;102727.09;;;9.86;nan
23321;BME280;33376;51.306;4.752;2023-11-21T07:23:31;102740.31;;;9.88;nan
23321;BME280;33376;51.306;4.752;2023-11-21T07:25:57;102742.16;;;9.86;nan
23321;BME280;33376;51.306;4.752;2023-11-21T07:28:23;102735.44;;;10.11;nan
23321;BME280;33376;51.306;4.752;2023-11-21T07:30:48;102742.97;;;9.88;nan
23321;BME280;33376;51.306;4.752;2023-11-21T07:33:14;102747.31;;;9.92;nan
23321;BME280;33376;51.306;4.752;2023-11-21T07:35:39;102741.59;;;10.13;nan
23321;BME280;33376;51.306;4.752;2023-11-21T07:38:04;102747.66;;;10.16;nan
23321;BME280;33376;51.306;4.752;2023-11-21T07:40:30;102743.09;;;10.23;nan
23321;BME280;33376;51.306;4.752;2023-11-21T07:42:55;102750.91;;;10.30;nan
23321;BME280;33376;51.306;4.752;2023-11-21T07:45:22;102755.78;;;10.09;nan
23321;BME280;33376;51.306;4.752;2023-11-21T07:47:47;102746.78;;;10.17;nan
23321;BME280;33376;51.306;4.752;2023-11-21T07:50:12;102752.34;;;10.04;nan
23321;BME280;33376;51.306;4.752;2023-11-21T07:52:38;102754.22;;;9.99;nan
23321;BME280;33376;51.306;4.752;2023-11-21T07:55:04;102753.38;;;9.97;nan
23321;BME280;33376;51.306;4.752;2023-11-21T07:57:30;102758.22;;;10.18;nan
23321;BME280;33376;51.306;4.752;2023-11-21T07:59:55;102749.53;;;10.13;nan
23321;BME280;33376;51.306;4.752;2023-11-21T08:02:21;102759.50;;;9.99;nan
23321;BME280;33376;51.306;4.752;2023-11-21T08:04:46;102748.09;;;9.97;nan
23321;BME280;33376;51.306;4.752;2023-11-21T08:07:14;102750.84;;;9.92;nan
23321;BME280;33376;51.306;4.752;2023-11-21T08:09:39;102754.41;;;9.90;nan
23321;BME280;33376;51.306;4.752;2023-11-21T08:12:04;102751.66;;;10.34;nan
23321;BME280;33376;51.306;4.752;2023-11-21T08:14:30;102754.31;;;10.34;nan
23321;BME280;33376;51.306;4.752;2023-11-21T08:16:55;102763.84;;;10.43;nan
23321;BME280;33376;51.306;4.752;2023-11-21T08:19:22;102771.31;;;10.64;nan
23321;BME280;33376;51.306;4.752;2023-11-21T08:21:49;102775.25;;;10.83;nan
23321;BME280;33376;51.306;4.752;2023-11-21T08:24:15;102787.91;;;10.72;nan
23321;BME280;33376;51.306;4.752;2023-11-21T08:26:40;102790.81;;;10.61;nan
23321;BME280;33376;51.306;4.752;2023-11-21T08:29:05;102788.44;;;10.86;nan
23321;BME280;33376;51.306;4.752;2023-11-21T08:31:32;102787.09;;;10.68;nan
23321;BME280;33376;51.306;4.752;2023-11-21T08:33:57;102791.16;;;10.83;nan
23321;BME280;33376;51.306;4.752;2023-11-21T08:36:22;102789.63;;;10.73;nan
23321;BME280;33376;51.306;4.752;2023-11-21T08:38:49;102782.81;;;10.99;nan
23321;BME280;33376;51.306;4.752;2023-11-21T08:41:14;102790.00;;;10.94;nan
23321;BME280;33376;51.306;4.752;2023-11-21T08:43:41;102789.03;;;10.97;nan
23321;BME280;33376;51.306;4.752;2023-11-21T08:46:07;102799.25;;;10.78;nan
23321;BME280;33376;51.306;4.752;2023-11-21T08:48:34;102796.16;;;10.95;nan
23321;BME280;33376;51.306;4.752;2023-11-21T08:51:01;102802.94;;;10.71;nan
23321;BME280;33376;51.306;4.752;2023-11-21T08:53:26;102810.22;;;10.63;nan
23321;BME280;33376;51.306;4.752;2023-11-21T08:55:51;102808.66;;;10.91;nan
23321;BME280;33376;51.306;4.752;2023-11-21T08:58:18;102809.25;;;10.67;nan
23321;BME280;33376;51.306;4.752;2023-11-21T09:00:44;102809.63;;;10.87;nan
23321;BME280;33376;51.306;4.752;2023-11-21T09:03:11;102811.00;;;11.03;nan
23321;BME280;33376;51.306;4.752;2023-11-21T09:05:39;102822.28;;;10.76;nan
23321;BME280;33376;51.306;4.752;2023-11-21T09:08:05;102820.25;;;10.51;nan
23321;BME280;33376;51.306;4.752;2023-11-21T09:10:31;102913.38;;;10.35;nan
23321;BME280;33376;51.306;4.752;2023-11-21T09:12:57;102915.13;;;10.38;nan
23321;BME280;33376;51.306;4.752;2023-11-21T09:15:24;102909.22;;;10.65;nan
23321;BME280;33376;51.306;4.752;2023-11-21T09:17:50;102904.63;;;10.73;nan
23321;BME280;33376;51.306;4.752;2023-11-21T09:20:15;102922.03;;;10.47;nan
23321;BME280;33376;51.306;4.752;2023-11-21T09:22:40;102925.97;;;10.27;nan
23321;BME280;33376;51.306;4.752;2023-11-21T09:25:06;102922.00;;;10.48;nan
23321;BME280;33376;51.306;4.752;2023-11-21T09:27:33;102924.59;;;11.26;nan
23321;BME280;33376;51.306;4.752;2023-11-21T09:29:59;102940.78;;;11.15;nan
23321;BME280;33376;51.306;4.752;2023-11-21T09:32:24;102955.81;;;11.16;nan
23321;BME280;33376;51.306;4.752;2023-11-21T09:34:49;102968.31;;;11.11;nan
23321;BME280;33376;51.306;4.752;2023-11-21T09:37:15;102985.00;;;11.18;nan
23321;BME280;33376;51.306;4.752;2023-11-21T09:39:40;102998.38;;;11.13;nan
23321;BME280;33376;51.306;4.752;2023-11-21T09:42:13;103006.69;;;10.97;nan
23321;BME280;33376;51.306;4.752;2023-11-21T09:44:54;103002.97;;;11.05;nan
23321;BME280;33376;51.306;4.752;2023-11-21T09:47:23;102996.69;;;11.46;nan
23321;BME280;33376;51.306;4.752;2023-11-21T09:49:49;103012.44;;;11.18;nan
23321;BME280;33376;51.306;4.752;2023-11-21T09:52:27;103018.78;;;11.11;nan
23321;BME280;33376;51.306;4.752;2023-11-21T09:54:53;103009.06;;;11.10;nan
23321;BME280;33376;51.306;4.752;2023-11-21T09:57:21;103008.16;;;10.70;nan
23321;BME280;33376;51.306;4.752;2023-11-21T09:59:49;102996.44;;;10.80;nan
23321;BME280;33376;51.306;4.752;2023-11-21T10:02:16;102996.91;;;11.00;nan
23321;BME280;33376;51.306;4.752;2023-11-21T10:04:43;102997.53;;;11.11;nan
23321;BME280;33376;51.306;4.752;2023-11-21T10:07:08;102994.38;;;11.32;nan
23321;BME280;33376;51.306;4.752;2023-11-21T10:09:36;102992.75;;;11.25;nan
23321;BME280;33376;51.306;4.752;2023-11-21T10:12:02;103003.31;;;11.28;nan
23321;BME280;33376;51.306;4.752;2023-11-21T10:14:28;103012.09;;;12.04;nan
23321;BME280;33376;51.306;4.752;2023-11-21T10:16:54;103026.50;;;11.95;nan
23321;BME280;33376;51.306;4.752;2023-11-21T10:19:21;103034.09;;;12.10;nan
23321;BME280;33376;51.306;4.752;2023-11-21T10:21:48;103041.19;;;12.10;nan
23321;BME280;33376;51.306;4.752;2023-11-21T10:24:14;103037.25;;;12.24;nan
23321;BME280;33376;51.306;4.752;2023-11-21T10:26:40;103043.78;;;12.11;nan
23321;BME280;33376;51.306;4.752;2023-11-21T10:29:06;103051.81;;;12.10;nan
23321;BME280;33376;51.306;4.752;2023-11-21T10:31:32;103047.75;;;11.95;nan
23321;BME280;33376;51.306;4.752;2023-11-21T10:34:14;103047.19;;;11.82;nan
23321;BME280;33376;51.306;4.752;2023-11-21T10:36:40;103044.34;;;11.92;nan
23321;BME280;33376;51.306;4.752;2023-11-21T10:39:06;103041.56;;;11.59;nan
23321;BME280;33376;51.306;4.752;2023-11-21T10:41:31;103047.75;;;11.58;nan
23321;BME280;33376;51.306;4.752;2023-11-21T10:43:57;103039.78;;;11.58;nan
23321;BME280;33376;51.306;4.752;2023-11-21T10:46:22;103053.78;;;11.66;nan
23321;BME280;33376;51.306;4.752;2023-11-21T10:48:54;103049.47;;;11.61;nan
23321;BME280;33376;51.306;4.752;2023-11-21T10:51:21;103045.75;;;11.71;nan
23321;BME280;33376;51.306;4.752;2023-11-21T10:53:46;103051.25;;;11.60;nan
23321;BME280;33376;51.306;4.752;2023-11-21T10:56:13;103050.38;;;11.61;nan
23321;BME280;33376;51.306;4.752;2023-11-21T10:58:42;103046.06;;;11.56;nan
23321;BME280;33376;51.306;4.752;2023-11-21T11:01:08;103048.81;;;11.51;nan
23321;BME280;33376;51.306;4.752;2023-11-21T11:03:36;103045.13;;;11.57;nan
23321;BME280;33376;51.306;4.752;2023-11-21T11:06:02;103047.13;;;11.47;nan
23321;BME280;33376;51.306;4.752;2023-11-21T11:08:29;103046.63;;;11.32;nan
23321;BME280;33376;51.306;4.752;2023-11-21T11:10:55;103049.72;;;11.50;nan
23321;BME280;33376;51.306;4.752;2023-11-21T11:13:20;103053.56;;;11.39;nan
23321;BME280;33376;51.306;4.752;2023-11-21T11:15:49;103060.31;;;11.53;nan
23321;BME280;33376;51.306;4.752;2023-11-21T11:18:15;103053.06;;;11.58;nan
23321;BME280;33376;51.306;4.752;2023-11-21T11:20:40;103055.88;;;11.52;nan
23321;BME280;33376;51.306;4.752;2023-11-21T11:23:13;103075.06;;;11.66;nan
23321;BME280;33376;51.306;4.752;2023-11-21T11:28:11;103085.31;;;11.43;nan
23321;BME280;33376;51.306;4.752;2023-11-21T11:31:00;103095.59;;;11.58;nan
23321;BME280;33376;51.306;4.752;2023-11-21T11:38:31;103111.03;;;11.81;nan
23321;BME280;33376;51.306;4.752;2023-11-21T11:40:57;103122.47;;;11.85;nan
23321;BME280;33376;51.306;4.752;2023-11-21T11:43:26;103125.34;;;12.12;nan
23321;BME280;33376;51.306;4.752;2023-11-21T11:45:52;103130.06;;;12.01;nan
23321;BME280;33376;51.306;4.752;2023-11-21T11:48:20;103127.25;;;12.07;nan
23321;BME280;33376;51.306;4.752;2023-11-21T11:53:35;103122.78;;;12.09;nan
23321;BME280;33376;51.306;4.752;2023-11-21T11:58:46;103132.78;;;11.98;nan
23321;BME280;33376;51.306;4.752;2023-11-21T12:01:12;103141.53;;;11.65;nan
23321;BME280;33376;51.306;4.752;2023-11-21T12:03:37;103138.66;;;11.75;nan
23321;BME280;33376;51.306;4.752;2023-11-21T12:06:02;103129.63;;;11.81;nan
23321;BME280;33376;51.306;4.752;2023-11-21T12:08:28;103133.22;;;11.80;nan
23321;BME280;33376;51.306;4.752;2023-11-21T12:10:56;103119.47;;;12.00;nan
23321;BME280;33376;51.306;4.752;2023-11-21T12:13:22;103115.31;;;12.23;nan
23321;BME280;33376;51.306;4.752;2023-11-21T12:15:48;103106.41;;;12.24;nan
23321;BME280;33376;51.306;4.752;2023-11-21T12:18:13;103103.91;;;12.18;nan
23321;BME280;33376;51.306;4.752;2023-11-21T12:20:39;103094.19;;;12.17;nan
23321;BME280;33376;51.306;4.752;2023-11-21T12:23:06;103098.00;;;12.07;nan
23321;BME280;33376;51.306;4.752;2023-11-21T12:25:31;103023.06;;;12.25;nan
23321;BME280;33376;51.306;4.752;2023-11-21T12:27:58;103029.34;;;12.21;nan
23321;BME280;33376;51.306;4.752;2023-11-21T12:30:25;103027.91;;;12.08;nan
23321;BME280;33376;51.306;4.752;2023-11-21T12:32:53;103029.34;;;12.21;nan
23321;BME280;33376;51.306;4.752;2023-11-21T12:35:19;103027.44;;;12.26;nan
23321;BME280;33376;51.306;4.752;2023-11-21T12:37:46;103028.72;;;12.12;nan
23321;BME280;33376;51.306;4.752;2023-11-21T12:40:12;103018.22;;;12.07;nan
23321;BME280;33376;51.306;4.752;2023-11-21T12:42:44;103022.81;;;12.01;nan
23321;BME280;33376;51.306;4.752;2023-11-21T12:47:41;103026.09;;;12.10;nan
23321;BME280;33376;51.306;4.752;2023-11-21T12:50:07;103027.25;;;12.00;nan
23321;BME280;33376;51.306;4.752;2023-11-21T12:52:39;103025.03;;;12.17;nan
23321;BME280;33376;51.306;4.752;2023-11-21T12:55:04;103026.16;;;12.09;nan
23321;BME280;33376;51.306;4.752;2023-11-21T12:57:32;103021.59;;;12.14;nan
23321;BME280;33376;51.306;4.752;2023-11-21T12:59:58;103017.19;;;11.79;nan
23321;BME280;33376;51.306;4.752;2023-11-21T13:02:29;103021.69;;;11.75;nan
23321;BME280;33376;51.306;4.752;2023-11-21T13:04:56;103024.44;;;11.72;nan
23321;BME280;33376;51.306;4.752;2023-11-21T13:07:23;103020.25;;;11.61;nan
23321;BME280;33376;51.306;4.752;2023-11-21T13:09:52;103025.41;;;11.68;nan
23321;BME280;33376;51.306;4.752;2023-11-21T13:12:17;103019.88;;;11.76;nan
23321;BME280;33376;51.306;4.752;2023-11-21T13:14:45;103024.03;;;11.88;nan
23321;BME280;33376;51.306;4.752;2023-11-21T13:17:11;103023.03;;;11.56;nan
23321;BME280;33376;51.306;4.752;2023-11-21T13:19:37;103027.56;;;11.51;nan
23321;BME280;33376;51.306;4.752;2023-11-21T13:22:03;103024.69;;;11.60;nan
23321;BME280;33376;51.306;4.752;2023-11-21T13:24:29;103027.50;;;11.54;nan
23321;BME280;33376;51.306;4.752;2023-11-21T13:26:54;103032.16;;;11.45;nan